Time;durP1;ratioP1;P1;durP2;ratioP2;P2;SDS_P1;SDS_P2;PMS_P1;PMS_P2;Temp;Humidity;BMP_temperature;BMP_pressure;BME280_temperature;BME280_humidity;BME280_pressure;Samples;Min_cycle;Max_cycle;Signal;HPM_P1;HPM_P2
2021/10/15 00:01:21;;;;;;;0.80;0.80;;;;;;;12.21;100.00;-21014.13;4974972;28;20428;-72
2021/10/15 00:03:49;;;;;;;0.70;0.60;;;;;;;12.20;100.00;-21013.72;4974241;28;20508;-73
2021/10/15 00:06:17;;;;;;;0.70;0.60;;;;;;;12.09;100.00;-21010.94;4974799;28;20431;-72
2021/10/15 00:08:44;;;;;;;0.70;0.60;;;;;;;12.05;100.00;-21009.84;4975805;28;20452;-72
2021/10/15 00:11:11;;;;;;;0.70;0.60;;;;;;;12.02;100.00;-21008.88;4974166;28;20454;-73
2021/10/15 00:13:38;;;;;;;0.70;0.60;;;;;;;12.01;100.00;-21008.59;4971877;28;20445;-72
2021/10/15 00:16:06;;;;;;;0.70;0.70;;;;;;;11.94;100.00;-21006.81;4969589;28;20483;-72
2021/10/15 00:18:33;;;;;;;0.70;0.60;;;;;;;11.87;100.00;-21004.75;4975065;28;20447;-72
2021/10/15 00:21:00;;;;;;;0.70;0.70;;;;;;;11.93;100.00;-21006.53;4989778;28;20454;-72
2021/10/15 00:23:28;;;;;;;0.70;0.70;;;;;;;12.00;100.00;-21008.47;4976561;28;20458;-73
2021/10/15 00:25:55;;;;;;;0.70;0.70;;;;;;;11.99;100.00;-21008.19;4976333;28;21059;-73
2021/10/15 00:28:23;;;;;;;0.70;0.70;;;;;;;11.82;100.00;-21003.63;4976825;28;20792;-73
2021/10/15 00:30:50;;;;;;;0.70;0.60;;;;;;;11.76;100.00;-21001.84;4974896;28;20836;-73
2021/10/15 00:33:17;;;;;;;0.70;0.63;;;;;;;11.81;100.00;-21003.22;4962237;28;20485;-73
2021/10/15 00:35:46;;;;;;;0.70;0.60;;;;;;;11.78;100.00;-21002.38;4974682;28;20556;-73
2021/10/15 00:38:20;;;;;;;0.70;0.60;;;;;;;11.74;100.00;-21001.41;4974943;28;20515;-73
2021/10/15 00:40:57;;;;;;;0.80;0.80;;;;;;;11.73;100.00;-21001.00;4975620;28;21062;-73
2021/10/15 00:43:30;;;;;;;0.70;0.60;;;;;;;11.61;100.00;-20997.97;4976959;28;20423;-73
2021/10/15 00:46:05;;;;;;;0.70;0.60;;;;;;;11.42;100.00;-20992.72;4971946;28;20447;-73
2021/10/15 00:48:41;;;;;;;0.80;0.80;;;;;;;11.49;100.00;-20994.66;4986955;28;20510;-73
2021/10/15 00:51:13;;;;;;;0.80;0.70;;;;;;;11.36;100.00;-20991.06;4987177;28;20506;-73
2021/10/15 00:53:45;;;;;;;0.70;0.70;;;;;;;11.40;100.00;-20992.16;4974328;28;20485;-73
2021/10/15 00:56:24;;;;;;;0.70;0.60;;;;;;;11.37;100.00;-20991.31;4990030;28;20418;-73
2021/10/15 00:58:55;;;;;;;1.07;0.97;;;;;;;11.41;100.00;-20992.44;4991088;28;20983;-73
2021/10/15 01:01:24;;;;;;;0.80;0.70;;;;;;;11.48;100.00;-20994.38;4975185;28;20938;-73
2021/10/15 01:03:54;;;;;;;0.70;0.60;;;;;;;11.48;100.00;-20994.38;4964417;28;20559;-73
2021/10/15 01:06:27;;;;;;;0.70;0.60;;;;;;;11.38;100.00;-20991.59;4974468;28;20538;-73
2021/10/15 01:09:01;;;;;;;0.70;0.60;;;;;;;11.36;100.00;-20991.19;4973727;28;20485;-73
2021/10/15 01:11:36;;;;;;;0.80;0.70;;;;;;;11.32;100.00;-20990.09;4960639;28;20448;-74
2021/10/15 01:14:12;;;;;;;0.70;0.60;;;;;;;11.27;100.00;-20988.56;4972881;28;20802;-73
2021/10/15 01:16:46;;;;;;;0.70;0.60;;;;;;;11.15;100.00;-20985.25;4957821;28;20452;-73
2021/10/15 01:19:39;;;;;;;0.70;0.60;;;;;;;11.05;100.00;-20982.75;4967917;28;20462;-73
2021/10/15 01:22:14;;;;;;;0.70;0.60;;;;;;;10.90;100.00;-20978.63;4954976;29;20476;-73
2021/10/15 01:24:46;;;;;;;0.90;0.90;;;;;;;10.91;100.00;-20978.88;4966083;28;20790;-73
2021/10/15 01:27:19;;;;;;;0.80;0.80;;;;;;;10.83;100.00;-20976.81;4974593;28;20457;-73
2021/10/15 01:29:57;;;;;;;0.80;0.80;;;;;;;10.79;100.00;-20975.56;4974406;28;20467;-73
2021/10/15 01:32:34;;;;;;;0.70;0.60;;;;;;;10.82;100.00;-20976.53;4973127;28;20454;-73
2021/10/15 01:35:06;;;;;;;0.80;0.70;;;;;;;10.78;100.00;-20975.44;4973476;28;20848;-73
2021/10/15 01:37:39;;;;;;;0.70;0.67;;;;;;;10.62;100.00;-20971.16;4975611;28;20533;-73
2021/10/15 01:40:16;;;;;;;0.80;0.70;;;;;;;10.61;100.00;-20970.88;4975590;28;20456;-73
2021/10/15 01:42:55;;;;;;;0.80;0.70;;;;;;;10.55;100.00;-20969.06;4976043;28;20926;-73
2021/10/15 01:45:24;;;;;;;0.70;0.70;;;;;;;10.64;100.00;-20971.69;4974187;28;20465;-73
2021/10/15 01:47:53;;;;;;;0.70;0.70;;;;;;;10.53;100.00;-20968.66;4972212;28;20462;-73
2021/10/15 01:50:21;;;;;;;0.70;0.60;;;;;;;10.47;100.00;-20967.00;4973788;28;20796;-73
2021/10/15 01:52:49;;;;;;;0.70;0.60;;;;;;;10.49;100.00;-20967.41;4975164;28;20460;-73
2021/10/15 01:55:18;;;;;;;0.70;0.60;;;;;;;10.40;100.00;-20965.19;4974984;28;20472;-73
2021/10/15 01:57:46;;;;;;;0.70;0.70;;;;;;;10.34;100.00;-20963.41;4975126;28;20419;-73
2021/10/15 02:00:14;;;;;;;0.70;0.60;;;;;;;10.32;100.00;-20962.84;4974156;28;20557;-74
2021/10/15 02:02:43;;;;;;;0.80;0.80;;;;;;;10.32;100.00;-20962.84;4973921;28;20540;-73
2021/10/15 02:05:13;;;;;;;0.80;0.70;;;;;;;10.46;100.00;-20966.59;4974297;28;20568;-73
2021/10/15 02:07:41;;;;;;;1.00;0.93;;;;;;;10.38;100.00;-20964.66;4974673;28;20609;-73
2021/10/15 02:10:11;;;;;;;0.70;0.70;;;;;;;10.48;100.00;-20967.13;4989954;28;20408;-73
2021/10/15 02:12:42;;;;;;;0.70;0.60;;;;;;;10.40;100.00;-20965.06;4973985;28;20542;-73
2021/10/15 02:15:11;;;;;;;0.80;0.77;;;;;;;10.37;100.00;-20964.38;4974048;28;20800;-73
2021/10/15 02:17:39;;;;;;;0.70;0.60;;;;;;;10.31;100.00;-20962.56;4973706;28;20477;-73
2021/10/15 02:20:09;;;;;;;0.70;0.60;;;;;;;10.32;100.00;-20962.97;4974057;28;20572;-73
2021/10/15 02:22:38;;;;;;;0.70;0.60;;;;;;;10.32;100.00;-20962.84;4973269;28;20572;-73
2021/10/15 02:25:07;;;;;;;0.70;0.70;;;;;;;10.29;100.00;-20962.00;4957282;28;20446;-73
2021/10/15 02:27:35;;;;;;;0.70;0.60;;;;;;;10.21;100.00;-20959.78;4974781;28;20433;-73
2021/10/15 02:30:03;;;;;;;0.70;0.60;;;;;;;10.21;100.00;-20959.94;4973215;28;20505;-74
2021/10/15 02:32:31;;;;;;;0.70;0.60;;;;;;;10.17;100.00;-20958.81;4972397;28;20450;-74
2021/10/15 02:34:59;;;;;;;0.70;0.60;;;;;;;10.13;100.00;-20957.84;4987404;28;21043;-73
2021/10/15 02:37:29;;;;;;;0.70;0.60;;;;;;;10.11;100.00;-20957.16;4974575;28;20447;-73
2021/10/15 02:39:56;;;;;;;0.70;0.60;;;;;;;10.11;100.00;-20957.31;4972934;28;20515;-73
2021/10/15 02:42:25;;;;;;;0.97;0.87;;;;;;;10.19;100.00;-20959.25;4975065;28;20534;-73
2021/10/15 02:44:53;;;;;;;0.70;0.60;;;;;;;10.12;100.00;-20957.44;4959591;28;20960;-74
2021/10/15 02:47:21;;;;;;;0.70;0.60;;;;;;;10.12;100.00;-20957.56;4968709;28;20540;-73
2021/10/15 02:49:49;;;;;;;0.80;0.70;;;;;;;10.12;100.00;-20957.56;4976858;28;20420;-73
2021/10/15 02:52:21;;;;;;;0.77;0.70;;;;;;;10.10;100.00;-20957.03;4992447;28;20531;-73
2021/10/15 02:54:49;;;;;;;0.73;0.70;;;;;;;10.15;100.00;-20958.28;4978154;28;20923;-73
2021/10/15 02:57:15;;;;;;;0.70;0.70;;;;;;;10.25;100.00;-20961.03;4978258;28;20427;-73
2021/10/15 02:59:43;;;;;;;0.80;0.80;;;;;;;10.24;100.00;-20960.63;4976564;28;20463;-73
2021/10/15 03:02:11;;;;;;;0.70;0.60;;;;;;;10.35;100.00;-20963.69;4977410;28;20437;-73
2021/10/15 03:04:38;;;;;;;0.70;0.60;;;;;;;10.43;100.00;-20965.75;4976676;28;20446;-73
2021/10/15 03:07:06;;;;;;;0.70;0.60;;;;;;;10.46;100.00;-20966.59;4961217;28;20577;-74
2021/10/15 03:09:33;;;;;;;0.70;0.60;;;;;;;10.68;100.00;-20972.53;4977513;28;20432;-73
2021/10/15 03:12:06;;;;;;;0.70;0.70;;;;;;;10.73;100.00;-20973.91;4976636;28;20447;-73
2021/10/15 03:14:34;;;;;;;0.70;0.60;;;;;;;10.71;100.00;-20973.34;4960525;28;20453;-73
2021/10/15 03:17:02;;;;;;;0.70;0.70;;;;;;;10.83;100.00;-20976.81;4976046;28;20533;-73
2021/10/15 03:19:30;;;;;;;0.70;0.60;;;;;;;10.83;100.00;-20976.69;4973181;28;20413;-73
2021/10/15 03:21:58;;;;;;;0.80;0.80;;;;;;;10.91;100.00;-20978.88;4976568;28;20473;-74
2021/10/15 03:24:25;;;;;;;0.70;0.70;;;;;;;11.02;100.00;-20981.94;4976541;28;20467;-73
2021/10/15 03:26:52;;;;;;;0.80;0.70;;;;;;;10.99;100.00;-20981.09;4992522;28;20471;-73
2021/10/15 03:29:19;;;;;;;0.70;0.70;;;;;;;10.96;100.00;-20980.28;4976105;28;20447;-73
2021/10/15 03:31:47;;;;;;;0.70;0.70;;;;;;;10.99;100.00;-20981.09;4969793;28;20459;-73
2021/10/15 03:34:14;;;;;;;0.70;0.60;;;;;;;11.13;100.00;-20984.97;4975614;28;20458;-73
2021/10/15 03:36:42;;;;;;;0.70;0.60;;;;;;;11.04;100.00;-20982.34;4977235;28;20470;-73
2021/10/15 03:39:11;;;;;;;0.70;0.60;;;;;;;11.02;100.00;-20981.78;4977940;28;20458;-73
2021/10/15 03:41:38;;;;;;;0.70;0.60;;;;;;;11.08;100.00;-20983.59;4977907;28;20455;-74
2021/10/15 03:44:06;;;;;;;0.70;0.70;;;;;;;11.07;100.00;-20983.31;4977165;28;20412;-73
2021/10/15 03:46:33;;;;;;;0.70;0.60;;;;;;;11.19;100.00;-20986.34;4977201;28;20469;-73
2021/10/15 03:49:00;;;;;;;0.70;0.70;;;;;;;11.14;100.00;-20985.09;4991281;28;20462;-73
2021/10/15 03:51:27;;;;;;;0.70;0.60;;;;;;;11.21;100.00;-20986.91;4992248;28;20492;-73
2021/10/15 03:53:56;;;;;;;0.70;0.60;;;;;;;11.16;100.00;-20985.53;4976329;28;20490;-73
2021/10/15 03:56:23;;;;;;;0.80;0.80;;;;;;;11.22;100.00;-20987.19;4976998;28;20412;-73
2021/10/15 03:58:50;;;;;;;0.80;0.80;;;;;;;11.20;100.00;-20986.63;4977079;28;20519;-74
2021/10/15 04:01:19;;;;;;;0.70;0.60;;;;;;;11.18;100.00;-20986.06;4975172;28;20522;-73
2021/10/15 04:03:46;;;;;;;1.00;1.00;;;;;;;11.32;100.00;-20989.94;4974469;28;20554;-73
2021/10/15 04:06:13;;;;;;;0.77;0.70;;;;;;;11.25;100.00;-20988.00;4976601;28;20755;-73
2021/10/15 04:08:40;;;;;;;0.70;0.60;;;;;;;11.21;100.00;-20986.91;4974969;28;20565;-73
2021/10/15 04:11:09;;;;;;;1.73;1.63;;;;;;;11.27;100.00;-20988.72;4976244;28;20897;-73
2021/10/15 04:13:36;;;;;;;0.80;0.80;;;;;;;11.23;100.00;-20987.47;4970881;28;20475;-73
2021/10/15 04:16:04;;;;;;;0.70;0.60;;;;;;;11.27;100.00;-20988.56;4957063;28;20978;-73
2021/10/15 04:18:31;;;;;;;0.70;0.60;;;;;;;11.25;100.00;-20988.00;4955782;28;20460;-73
2021/10/15 04:20:58;;;;;;;0.70;0.60;;;;;;;11.28;100.00;-20988.97;4975150;28;20518;-73
2021/10/15 04:23:26;;;;;;;0.80;0.70;;;;;;;11.40;100.00;-20992.03;4991095;28;20477;-73
2021/10/15 04:25:54;;;;;;;0.80;0.70;;;;;;;11.46;100.00;-20993.81;4973265;28;20827;-73
2021/10/15 04:28:23;;;;;;;0.70;0.60;;;;;;;11.37;100.00;-20991.31;4969371;28;20480;-74
2021/10/15 04:30:50;;;;;;;0.70;0.70;;;;;;;11.29;100.00;-20989.13;4956852;28;20425;-73
2021/10/15 04:33:18;;;;;;;0.70;0.70;;;;;;;11.43;100.00;-20993.00;4987541;28;20459;-72
2021/10/15 04:35:45;;;;;;;0.80;0.70;;;;;;;11.40;100.00;-20992.16;4967071;28;20973;-72
2021/10/15 04:38:17;;;;;;;0.70;0.60;;;;;;;11.39;100.00;-20991.88;4976146;28;20868;-74
2021/10/15 04:40:45;;;;;;;0.77;0.67;;;;;;;11.46;100.00;-20993.81;4975222;28;20455;-74
2021/10/15 04:43:12;;;;;;;0.70;0.67;;;;;;;11.58;100.00;-20997.13;4958087;28;20467;-73
2021/10/15 04:45:40;;;;;;;0.80;0.70;;;;;;;11.57;100.00;-20996.84;4974396;28;20463;-72
2021/10/15 04:48:08;;;;;;;0.70;0.60;;;;;;;11.49;100.00;-20994.66;4974106;28;20446;-73
2021/10/15 04:50:36;;;;;;;0.80;0.80;;;;;;;11.45;100.00;-20993.53;4957836;28;20537;-73
2021/10/15 04:53:05;;;;;;;0.70;0.70;;;;;;;11.35;100.00;-20990.78;4974065;28;20494;-72
2021/10/15 04:55:33;;;;;;;0.70;0.60;;;;;;;11.34;100.00;-20990.50;4973872;28;20446;-74
2021/10/15 04:58:01;;;;;;;0.80;0.80;;;;;;;11.27;100.00;-20988.56;4972465;28;20541;-73
2021/10/15 05:00:29;;;;;;;0.80;0.70;;;;;;;11.20;100.00;-20986.63;4960911;28;20630;-74
2021/10/15 05:02:59;;;;;;;0.70;0.70;;;;;;;11.14;100.00;-20985.09;4988843;28;20452;-74
2021/10/15 05:05:29;;;;;;;0.70;0.70;;;;;;;11.19;100.00;-20986.34;4974501;28;20459;-73
2021/10/15 05:07:57;;;;;;;0.70;0.60;;;;;;;11.24;100.00;-20987.75;4988494;28;20470;-73
2021/10/15 05:10:27;;;;;;;0.70;0.70;;;;;;;11.19;100.00;-20986.34;4975440;28;20439;-72
2021/10/15 05:12:54;;;;;;;0.70;0.70;;;;;;;11.25;100.00;-20988.00;4974946;28;20433;-72
2021/10/15 05:15:21;;;;;;;0.70;0.60;;;;;;;11.24;100.00;-20987.75;4974910;28;21147;-72
2021/10/15 05:17:50;;;;;;;0.80;0.80;;;;;;;11.28;100.00;-20988.84;4973668;28;20542;-72
2021/10/15 05:20:21;;;;;;;0.80;0.70;;;;;;;11.28;100.00;-20988.84;4957809;28;20437;-73
2021/10/15 05:22:48;;;;;;;0.70;0.70;;;;;;;11.35;100.00;-20990.78;4974093;28;20476;-72
2021/10/15 05:25:15;;;;;;;0.80;0.70;;;;;;;11.34;100.00;-20990.50;4974967;28;20438;-72
2021/10/15 05:27:44;;;;;;;0.70;0.70;;;;;;;11.43;100.00;-20993.00;4974772;28;20458;-73
2021/10/15 05:30:15;;;;;;;0.70;0.70;;;;;;;11.40;100.00;-20992.03;4973295;28;20532;-72
2021/10/15 05:32:42;;;;;;;0.70;0.70;;;;;;;11.42;100.00;-20992.56;4973843;28;20862;-73
2021/10/15 05:35:09;;;;;;;0.70;0.70;;;;;;;11.46;100.00;-20993.81;4986178;28;20545;-72
2021/10/15 05:37:40;;;;;;;0.70;0.70;;;;;;;11.45;100.00;-20993.53;4955304;28;20458;-72
2021/10/15 05:40:08;;;;;;;0.80;0.80;;;;;;;11.43;100.00;-20992.84;4986318;28;20824;-73
2021/10/15 05:42:35;;;;;;;0.70;0.60;;;;;;;11.51;100.00;-20995.06;4966704;28;20508;-73
2021/10/15 05:45:03;;;;;;;0.70;0.60;;;;;;;11.55;100.00;-20996.31;4967713;28;20531;-72
2021/10/15 05:47:30;;;;;;;1.73;0.87;;;;;;;11.61;100.00;-20997.97;4961206;28;20505;-72
2021/10/15 05:49:58;;;;;;;0.80;0.70;;;;;;;11.59;100.00;-20997.28;4974439;28;20428;-73
2021/10/15 05:53:10;;;;;;;0.80;0.77;;;;;;;11.73;100.00;-21001.00;4971464;28;20467;-73
2021/10/15 06:00:46;;;;;;;0.70;0.70;;;;;;;11.75;100.00;-21001.56;4972540;28;20906;-73
2021/10/15 06:03:15;;;;;;;0.70;0.70;;;;;;;11.74;100.00;-21001.28;4971024;28;20520;-74
2021/10/15 06:16:37;;;;;;;0.73;0.70;;;;;;;11.86;100.00;-21004.59;4973471;28;20422;-73
2021/10/15 06:19:06;;;;;;;0.80;0.80;;;;;;;11.90;100.00;-21005.56;4972670;28;20450;-72
2021/10/15 06:21:33;;;;;;;0.70;0.70;;;;;;;12.02;100.00;-21009.00;4976273;28;20551;-72
2021/10/15 06:24:01;;;;;;;0.70;0.70;;;;;;;12.08;100.00;-21010.69;4992482;28;20526;-73
2021/10/15 06:26:30;;;;;;;0.80;0.80;;;;;;;12.06;100.00;-21010.13;4976691;28;20527;-73
2021/10/15 06:28:58;;;;;;;0.80;0.80;;;;;;;11.98;100.00;-21007.91;4977954;28;20785;-74
2021/10/15 06:31:28;;;;;;;0.87;0.87;;;;;;;11.95;100.00;-21007.09;4992753;28;20424;-74
2021/10/15 06:33:58;;;;;;;0.70;0.60;;;;;;;11.99;100.00;-21008.19;4972322;28;20444;-74
2021/10/15 06:36:25;;;;;;;0.93;0.80;;;;;;;12.09;100.00;-21010.94;4971536;28;20445;-74
2021/10/15 06:38:52;;;;;;;0.80;0.73;;;;;;;12.03;100.00;-21009.28;4977926;28;20460;-73
2021/10/15 06:41:20;;;;;;;0.80;0.70;;;;;;;12.17;100.00;-21012.88;4976047;28;20518;-73
2021/10/15 06:43:48;;;;;;;0.70;0.70;;;;;;;12.17;100.00;-21013.03;4976534;28;20780;-72
2021/10/15 06:46:15;;;;;;;0.70;0.70;;;;;;;12.12;100.00;-21011.50;4977433;28;20931;-72
2021/10/15 06:48:43;;;;;;;0.70;0.60;;;;;;;12.21;100.00;-21014.00;4976032;28;22235;-73
2021/10/15 06:51:10;;;;;;;0.70;0.60;;;;;;;12.23;100.00;-21014.53;4975475;28;21071;-73
2021/10/15 06:53:37;;;;;;;0.80;0.70;;;;;;;12.23;100.00;-21014.53;4976234;28;20504;-73
2021/10/15 06:56:04;;;;;;;0.80;0.70;;;;;;;12.16;100.00;-21012.75;4977020;28;20481;-73
2021/10/15 06:58:34;;;;;;;0.70;0.67;;;;;;;12.14;100.00;-21012.06;4977475;28;20507;-72
2021/10/15 07:01:03;;;;;;;0.70;0.60;;;;;;;12.20;100.00;-21013.72;4967973;28;21068;-71
2021/10/15 07:03:31;;;;;;;0.70;0.70;;;;;;;12.28;100.00;-21015.91;4975136;28;20483;-72
2021/10/15 07:05:58;;;;;;;0.70;0.70;;;;;;;12.25;100.00;-21015.09;4977312;28;20537;-73
2021/10/15 07:08:28;;;;;;;0.70;0.70;;;;;;;12.22;100.00;-21014.25;4976143;28;20488;-72
2021/10/15 07:10:56;;;;;;;0.70;0.70;;;;;;;12.28;100.00;-21015.91;4975599;28;20969;-72
2021/10/15 07:13:26;;;;;;;0.80;0.70;;;;;;;12.32;100.00;-21017.03;4975599;28;20521;-73
2021/10/15 07:15:53;;;;;;;0.90;0.90;;;;;;;12.38;100.00;-21018.69;4976833;28;20960;-73
2021/10/15 07:18:21;;;;;;;0.70;0.70;;;;;;;12.33;100.00;-21017.44;4976590;28;20497;-73
2021/10/15 07:20:48;;;;;;;0.70;0.70;;;;;;;12.33;100.00;-21017.28;4977060;28;20816;-72
2021/10/15 07:23:16;;;;;;;0.70;0.63;;;;;;;12.47;100.00;-21021.16;4974972;28;20455;-73
2021/10/15 07:25:45;;;;;;;0.80;0.70;;;;;;;12.40;100.00;-21019.22;4975188;28;20435;-72
2021/10/15 07:28:14;;;;;;;0.70;0.70;;;;;;;12.47;100.00;-21021.16;4975992;28;20466;-73
2021/10/15 07:30:45;;;;;;;0.70;0.70;;;;;;;12.50;100.00;-21022.00;4975683;28;20435;-73
2021/10/15 07:33:12;;;;;;;0.70;0.60;;;;;;;12.48;100.00;-21021.44;4975733;28;20521;-73
2021/10/15 07:35:40;;;;;;;0.87;0.87;;;;;;;12.54;100.00;-21023.09;4975903;28;20436;-72
2021/10/15 07:38:08;;;;;;;0.70;0.70;;;;;;;12.78;100.00;-21029.44;4976764;28;20442;-72
2021/10/15 07:40:35;;;;;;;0.70;0.70;;;;;;;12.85;100.00;-21031.38;4991721;28;20429;-73
2021/10/15 07:43:02;;;;;;;0.70;0.70;;;;;;;12.96;100.00;-21034.28;4976272;28;20456;-73
2021/10/15 07:45:30;;;;;;;0.70;0.70;;;;;;;13.00;100.00;-21035.50;4975206;28;20417;-73
2021/10/15 07:47:59;;;;;;;0.70;0.60;;;;;;;13.09;100.00;-21037.84;4973442;28;20546;-73
2021/10/15 07:50:27;;;;;;;0.80;0.73;;;;;;;13.16;100.00;-21039.66;4973819;28;20605;-73
2021/10/15 07:52:55;;;;;;;0.80;0.80;;;;;;;13.17;100.00;-21040.06;4974882;28;20471;-73
2021/10/15 07:55:23;;;;;;;0.73;0.70;;;;;;;13.37;100.00;-21045.44;4975302;28;20453;-72
2021/10/15 07:57:50;;;;;;;0.70;0.60;;;;;;;13.41;100.00;-21046.53;4975081;28;20435;-73
2021/10/15 08:00:17;;;;;;;0.70;0.60;;;;;;;13.38;100.00;-21045.59;4974914;28;20427;-73
2021/10/15 08:02:44;;;;;;;0.70;0.70;;;;;;;13.43;100.00;-21047.09;4974684;28;20464;-73
2021/10/15 08:05:16;;;;;;;1.20;1.10;;;;;;;13.65;100.00;-21052.88;4989541;28;20548;-72
2021/10/15 08:07:44;;;;;;;0.80;0.60;;;;;;;13.75;100.00;-21055.63;4991128;28;20469;-72
2021/10/15 08:10:13;;;;;;;0.70;0.70;;;;;;;13.68;100.00;-21053.72;4975935;28;20769;-72
2021/10/15 08:12:40;;;;;;;0.70;0.60;;;;;;;13.70;100.00;-21054.25;4974591;28;20431;-73
2021/10/15 08:15:10;;;;;;;0.70;0.70;;;;;;;13.93;100.00;-21060.59;4973884;28;20438;-73
2021/10/15 08:17:41;;;;;;;0.70;0.63;;;;;;;14.05;100.00;-21063.78;4966156;28;20439;-73
2021/10/15 08:20:10;;;;;;;0.70;0.60;;;;;;;14.45;100.00;-21074.50;4973460;28;20484;-73
2021/10/15 08:22:38;;;;;;;3.17;1.90;;;;;;;14.32;100.00;-21070.94;4972586;28;20826;-72
2021/10/15 08:25:23;;;;;;;0.80;0.70;;;;;;;14.21;100.00;-21068.19;4974003;28;20526;-72
2021/10/15 08:27:50;;;;;;;0.80;0.73;;;;;;;14.13;100.00;-21065.97;4969372;28;20939;-74
2021/10/15 08:30:18;;;;;;;0.70;0.60;;;;;;;14.08;100.00;-21064.47;4954803;29;20503;-74
2021/10/15 08:32:46;;;;;;;0.70;0.60;;;;;;;14.04;100.00;-21063.34;4961128;28;20520;-72
2021/10/15 08:35:13;;;;;;;0.70;0.70;;;;;;;13.85;100.00;-21058.41;4973819;28;20469;-72
2021/10/15 08:37:40;;;;;;;0.70;0.60;;;;;;;13.92;100.00;-21060.31;4974459;28;20465;-72
2021/10/15 08:40:09;;;;;;;0.80;0.70;;;;;;;13.83;100.00;-21057.72;4975284;28;20415;-72
2021/10/15 08:42:37;;;;;;;0.80;0.80;;;;;;;13.91;100.00;-21060.03;4974156;28;20493;-72
2021/10/15 08:45:06;;;;;;;0.70;0.70;;;;;;;14.09;100.00;-21064.72;4988375;28;20835;-73
2021/10/15 08:47:33;;;;;;;0.70;0.60;;;;;;;14.17;100.00;-21066.94;4975348;28;20458;-72
2021/10/15 08:50:20;;;;;;;0.70;0.60;;;;;;;14.28;100.00;-21069.97;4970586;28;20450;-72
2021/10/15 08:52:47;;;;;;;0.90;0.90;;;;;;;14.24;100.00;-21068.88;4970412;28;20468;-72
2021/10/15 08:55:14;;;;;;;0.70;0.70;;;;;;;14.52;100.00;-21076.31;4975636;28;20939;-72
2021/10/15 08:57:48;;;;;;;1.43;1.33;;;;;;;14.56;100.00;-21077.53;4970076;28;20479;-73
2021/10/15 09:00:28;;;;;;;0.70;0.60;;;;;;;14.48;100.00;-21075.34;4968660;28;20480;-73
2021/10/15 09:03:09;;;;;;;0.70;0.63;;;;;;;14.23;100.00;-21068.59;4984748;28;20535;-74
2021/10/15 09:05:36;;;;;;;0.70;0.60;;;;;;;14.16;100.00;-21066.78;4973850;28;20460;-74
2021/10/15 09:08:04;;;;;;;0.70;0.60;;;;;;;14.10;100.00;-21065.00;4974327;28;20478;-73
2021/10/15 09:10:32;;;;;;;0.80;0.80;;;;;;;14.58;100.00;-21077.94;4975077;28;20489;-74
2021/10/15 09:13:10;;;;;;;0.70;0.60;;;;;;;14.61;100.00;-21078.78;4964614;28;20477;-74
2021/10/15 09:15:38;;;;;;;0.70;0.70;;;;;;;14.66;100.00;-21080.16;4960372;28;20427;-73
2021/10/15 09:18:12;;;;;;;1.77;1.00;;;;;;;15.13;100.00;-21092.81;4974370;28;20498;-74
2021/10/15 09:20:41;;;;;;;1.40;0.70;;;;;;;14.91;100.00;-21087.03;4973633;28;20908;-73
2021/10/15 09:23:09;;;;;;;0.70;0.60;;;;;;;14.96;100.00;-21088.41;4972548;28;20479;-74
2021/10/15 09:25:39;;;;;;;0.80;0.70;;;;;;;14.96;100.00;-21088.41;4974780;28;20416;-73
2021/10/15 09:28:17;;;;;;;0.70;0.60;;;;;;;15.06;100.00;-21090.88;4973848;28;20436;-74
2021/10/15 09:30:46;;;;;;;0.70;0.60;;;;;;;15.13;100.00;-21092.81;4973507;28;20537;-74
2021/10/15 09:33:15;;;;;;;0.70;0.70;;;;;;;14.85;100.00;-21085.25;4971714;28;20851;-74
2021/10/15 09:35:42;;;;;;;0.70;0.70;;;;;;;14.94;100.00;-21087.84;4973502;28;20436;-73
2021/10/15 09:38:10;;;;;;;0.80;0.70;;;;;;;15.00;100.00;-21089.25;4974436;28;20448;-73
2021/10/15 09:40:39;;;;;;;0.70;0.70;;;;;;;14.85;100.00;-21085.38;4987331;28;20439;-73
2021/10/15 09:43:11;;;;;;;0.80;0.80;;;;;;;14.71;100.00;-21081.66;4974511;28;20447;-74
2021/10/15 09:45:41;;;;;;;0.70;0.70;;;;;;;14.58;100.00;-21078.09;4972346;28;20460;-73
2021/10/15 09:48:20;;;;;;;0.73;0.67;;;;;;;14.55;100.00;-21077.13;4969560;28;20475;-73
2021/10/15 09:51:08;;;;;;;0.70;0.70;;;;;;;14.47;100.00;-21075.19;4974346;28;20843;-74
2021/10/15 09:53:35;;;;;;;0.70;0.70;;;;;;;14.17;100.00;-21066.94;4974047;28;20863;-73
2021/10/15 09:56:02;;;;;;;0.80;0.70;;;;;;;14.04;100.00;-21063.34;4972813;28;20436;-73
2021/10/15 09:58:29;;;;;;;0.80;0.70;;;;;;;13.86;100.00;-21058.66;4972770;28;20437;-72
2021/10/15 10:00:59;;;;;;;0.70;0.70;;;;;;;13.76;100.00;-21055.91;4973575;28;20437;-74
2021/10/15 10:03:26;;;;;;;0.70;0.70;;;;;;;13.67;100.00;-21053.56;4973794;28;20580;-73
2021/10/15 10:05:53;;;;;;;0.70;0.70;;;;;;;13.60;100.00;-20662.19;4974453;28;20451;-73
2021/10/15 10:08:23;;;;;;;0.80;0.80;;;;;;;13.50;100.00;-18968.19;4973461;28;20839;-73
2021/10/15 10:10:51;;;;;;;0.70;0.60;;;;;;;13.66;100.00;-16553.44;4973030;28;20929;-73
2021/10/15 10:13:18;;;;;;;0.70;0.70;;;;;;;13.87;100.00;-14479.59;4989414;28;20799;-73
2021/10/15 10:15:46;;;;;;;0.80;0.70;;;;;;;14.09;100.00;-12488.91;4973619;28;20479;-72
2021/10/15 10:18:27;;;;;;;0.80;0.80;;;;;;;14.19;100.00;-11757.81;4971793;28;20493;-72
2021/10/15 10:21:05;;;;;;;0.70;0.60;;;;;;;14.52;100.00;-10985.78;4963350;28;20432;-72
2021/10/15 10:23:37;;;;;;;0.70;0.70;;;;;;;14.74;100.00;-10942.75;4973028;28;21060;-72
2021/10/15 10:26:07;;;;;;;0.80;0.77;;;;;;;14.81;100.00;-12763.91;4974279;28;20418;-73
2021/10/15 10:28:35;;;;;;;0.80;0.80;;;;;;;14.71;100.00;-14212.97;4974003;28;20419;-73
2021/10/15 10:31:05;;;;;;;0.70;0.70;;;;;;;14.54;100.00;-16053.31;4966386;28;20479;-73
2021/10/15 10:33:51;;;;;;;1.53;0.90;;;;;;;14.64;100.00;-16138.56;4963819;28;20483;-72
2021/10/15 10:36:19;;;;;;;0.80;0.80;;;;;;;14.70;100.00;-16952.69;4970454;28;21010;-72
2021/10/15 10:38:46;;;;;;;0.73;0.70;;;;;;;14.73;100.00;-17659.91;4974269;28;20461;-72
2021/10/15 10:41:26;;;;;;;0.80;0.70;;;;;;;14.77;100.00;-18597.00;4972513;28;20482;-72
2021/10/15 10:44:21;;;;;;;0.70;0.70;;;;;;;14.80;100.00;-19805.97;4956064;28;20475;-72
2021/10/15 10:47:07;;;;;;;0.70;0.70;;;;;;;14.69;100.00;-20691.00;4955703;28;21028;-73
2021/10/15 10:49:35;;;;;;;0.80;0.70;;;;;;;14.40;100.00;-21073.28;4973746;28;20469;-72
2021/10/15 10:52:11;;;;;;;1.23;1.13;;;;;;;14.38;100.00;-21072.59;4972565;28;20533;-72
2021/10/15 10:54:40;;;;;;;0.70;0.60;;;;;;;14.31;100.00;-21070.66;4971296;28;20913;-72
2021/10/15 10:57:28;;;;;;;0.80;0.80;;;;;;;14.25;100.00;-21069.28;4953705;28;20427;-72
2021/10/15 11:00:22;;;;;;;0.70;0.60;;;;;;;14.37;100.00;-21072.44;4953363;28;20522;-72
2021/10/15 11:02:52;;;;;;;0.77;0.73;;;;;;;14.21;100.00;-21068.19;4967684;28;20467;-73
2021/10/15 11:05:31;;;;;;;0.70;0.70;;;;;;;14.16;100.00;-21066.66;4955090;28;20477;-72
2021/10/15 11:08:27;;;;;;;0.70;0.70;;;;;;;14.09;100.00;-21064.72;4976629;28;20498;-73
2021/10/15 11:11:40;;;;;;;0.70;0.70;;;;;;;14.05;100.00;-21063.63;4977284;28;20924;-73
2021/10/15 11:14:07;;;;;;;0.70;0.70;;;;;;;14.00;100.00;-21062.53;4976960;28;20438;-73
2021/10/15 11:16:34;;;;;;;0.70;0.70;;;;;;;13.90;100.00;-21059.78;4976771;28;20431;-73
2021/10/15 11:19:02;;;;;;;0.80;0.70;;;;;;;13.87;100.00;-21058.94;4976162;28;20421;-73
2021/10/15 11:21:31;;;;;;;0.70;0.70;;;;;;;13.89;100.00;-21059.50;4977295;28;20487;-74
2021/10/15 11:24:11;;;;;;;0.70;0.70;;;;;;;13.72;100.00;-21054.94;4975831;28;20890;-73
2021/10/15 11:26:38;;;;;;;0.70;0.70;;;;;;;13.49;100.00;-21048.63;4977486;28;20906;-73
2021/10/15 11:29:05;;;;;;;0.73;0.70;;;;;;;13.55;100.00;-20711.19;4976271;28;20442;-73
2021/10/15 11:31:33;;;;;;;0.80;0.70;;;;;;;13.56;100.00;-20618.22;4977087;28;20428;-73
2021/10/15 11:34:08;;;;;;;0.70;0.60;;;;;;;13.41;100.00;-21024.41;4974629;28;20475;-73
2021/10/15 11:36:37;;;;;;;1.00;1.00;;;;;;;13.48;100.00;-21048.47;4988766;28;20931;-73
2021/10/15 11:39:05;;;;;;;2.60;1.67;;;;;;;13.45;100.00;-21047.50;4967904;28;20525;-73
2021/10/15 11:41:32;;;;;;;0.80;0.77;;;;;;;13.55;100.00;-21050.28;4975930;28;20441;-73
2021/10/15 11:43:59;;;;;;;0.70;0.70;;;;;;;13.77;100.00;-21056.19;4976263;28;20473;-73
2021/10/15 11:46:30;;;;;;;0.70;0.70;;;;;;;13.74;100.00;-21055.38;4976948;28;20469;-73